createdAt,value
2023-04-25T00:02:08.252Z,1.35
2023-04-25T00:04:39.464Z,1.63
2023-04-25T00:07:07.637Z,1.15
2023-04-25T00:09:35.424Z,1.15
2023-04-25T00:12:03.233Z,0.68
2023-04-25T00:14:31.660Z,1.58
2023-04-25T00:17:00.447Z,1.67
2023-04-25T00:19:29.488Z,1.20
2023-04-25T00:21:57.559Z,1.38
2023-04-25T00:24:25.540Z,1.40
2023-04-25T00:26:53.321Z,1.77
2023-04-25T00:29:21.160Z,1.27
2023-04-25T00:31:48.982Z,1.85
2023-04-25T00:34:19.568Z,1.45
2023-04-25T00:36:47.350Z,0.82
2023-04-25T00:39:15.332Z,1.02
2023-04-25T00:41:43.287Z,0.75
2023-04-25T00:44:12.392Z,1.73
2023-04-25T00:46:41.167Z,1.67
2023-04-25T00:49:09.096Z,1.80
2023-04-25T00:51:37.623Z,1.40
2023-04-25T00:54:05.357Z,1.55
2023-04-25T00:56:33.266Z,1.25
2023-04-25T00:59:01.129Z,2.05
2023-04-25T01:01:32.350Z,1.45
2023-04-25T01:04:01.298Z,0.98
2023-04-25T01:06:29.536Z,0.98
2023-04-25T01:08:57.446Z,1.73
2023-04-25T01:11:25.638Z,1.52
2023-04-25T01:13:53.548Z,1.15
2023-04-25T01:16:21.579Z,1.23
2023-04-25T01:18:54.984Z,2.13
2023-04-25T01:21:22.953Z,1.58
2023-04-25T01:23:51.397Z,1.40
2023-04-25T01:26:19.475Z,1.38
2023-04-25T01:28:48.211Z,1.42
2023-04-25T01:31:16.486Z,1.30
2023-04-25T01:33:46.624Z,1.55
2023-04-25T01:38:42.441Z,1.33
2023-04-25T01:41:10.260Z,1.55
2023-04-25T01:43:38.081Z,1.02
2023-04-25T01:46:06.035Z,0.90
2023-04-25T01:48:34.003Z,1.50
2023-04-25T01:51:01.732Z,1.05
2023-04-25T01:53:30.973Z,1.33
2023-04-25T01:55:58.660Z,1.20
2023-04-25T01:58:26.580Z,1.52
2023-04-25T02:00:58.392Z,1.27
2023-04-25T02:03:26.379Z,2.17
2023-04-25T02:05:54.230Z,1.05
2023-04-25T02:08:22.113Z,1.83
2023-04-25T02:10:50.008Z,1.60
2023-04-25T02:13:17.746Z,1.80
2023-04-25T02:15:45.672Z,1.95
2023-04-25T02:18:13.588Z,1.52
2023-04-25T02:20:41.366Z,1.33
2023-04-25T02:23:09.176Z,1.13
2023-04-25T02:25:37.011Z,1.25
2023-04-25T02:28:04.975Z,1.42
2023-04-25T02:30:33.080Z,1.70
2023-04-25T02:33:01.180Z,1.25
2023-04-25T02:35:29.101Z,1.33
2023-04-25T02:37:59.279Z,1.38
2023-04-25T02:40:27.191Z,1.45
2023-04-25T02:42:58.259Z,1.42
2023-04-25T02:45:25.938Z,1.42
2023-04-25T02:47:53.826Z,1.30
2023-04-25T02:50:21.713Z,1.25
2023-04-25T02:52:52.619Z,1.58
2023-04-25T02:55:20.790Z,1.30
2023-04-25T02:57:48.666Z,1.63
2023-04-25T03:00:18.136Z,1.75
2023-04-25T03:02:46.108Z,1.52
2023-04-25T03:05:13.917Z,1.35
2023-04-25T03:07:41.919Z,1.50
2023-04-25T03:10:12.356Z,1.80
2023-04-25T03:12:42.597Z,1.20
2023-04-25T03:15:10.552Z,1.80
2023-04-25T03:17:38.402Z,2.03
2023-04-25T03:20:06.529Z,1.50
2023-04-25T03:22:34.562Z,1.52
2023-04-25T03:25:02.245Z,1.63
2023-04-25T03:27:30.175Z,1.48
2023-04-25T03:29:57.977Z,1.63
2023-04-25T03:32:25.838Z,1.55
2023-04-25T03:34:53.601Z,1.58
2023-04-25T03:37:21.399Z,1.30
2023-04-25T03:39:49.188Z,1.63
2023-04-25T03:42:17.147Z,1.23
2023-04-25T03:44:44.946Z,1.60
2023-04-25T03:47:13.082Z,1.70
2023-04-25T03:49:41.017Z,1.48
2023-04-25T03:52:08.838Z,1.50
2023-04-25T03:54:36.669Z,1.35
2023-04-25T03:57:04.568Z,1.20
2023-04-25T03:59:32.425Z,2.13
2023-04-25T04:02:01.172Z,1.58
2023-04-25T04:04:29.205Z,2.03
2023-04-25T04:06:57.223Z,1.75
2023-04-25T04:09:24.979Z,1.95
2023-04-25T04:11:52.749Z,1.25
2023-04-25T04:14:20.672Z,1.77
2023-04-25T04:16:48.480Z,1.67
2023-04-25T04:19:18.613Z,1.42
2023-04-25T04:24:17.918Z,1.55
2023-04-25T04:26:46.204Z,1.20
2023-04-25T04:29:21.785Z,2.15
2023-04-25T04:31:50.720Z,1.42
2023-04-25T04:34:19.510Z,1.75
2023-04-25T04:36:47.981Z,1.10
2023-04-25T04:39:15.991Z,1.80
2023-04-25T04:41:46.784Z,1.77
2023-04-25T04:44:15.151Z,2.75
2023-04-25T04:46:46.196Z,1.90
2023-04-25T04:49:14.928Z,2.67
2023-04-25T04:51:45.626Z,2.08
2023-04-25T04:54:15.880Z,2.47
2023-04-25T04:56:43.729Z,1.60
2023-04-25T04:59:11.632Z,2.20
2023-04-25T05:01:39.368Z,3.03
2023-04-25T05:04:07.968Z,6.22
2023-04-25T05:06:36.112Z,3.45
2023-04-25T05:09:03.974Z,5.78
2023-04-25T05:11:31.742Z,0.95
2023-04-25T05:13:59.603Z,3.53
2023-04-25T05:16:27.340Z,3.75
2023-04-25T05:18:55.296Z,2.92
2023-04-25T05:21:23.557Z,2.67
2023-04-25T05:23:51.605Z,3.25
2023-04-25T05:26:19.593Z,3.17
2023-04-25T05:28:47.351Z,3.20
2023-04-25T05:31:15.327Z,2.38
2023-04-25T05:33:43.201Z,2.75
2023-04-25T05:36:11.265Z,4.88
2023-04-25T05:38:39.137Z,4.28
2023-04-25T05:41:06.953Z,3.40
2023-04-25T05:43:34.858Z,4.28
2023-04-25T05:46:02.668Z,4.50
2023-04-25T05:48:33.148Z,3.05
2023-04-25T05:51:00.992Z,5.82
2023-04-25T05:53:31.949Z,3.55
2023-04-25T05:55:59.743Z,4.85
2023-04-25T05:58:27.485Z,3.20
2023-04-25T06:00:57.638Z,3.53
2023-04-25T06:03:26.105Z,3.20
2023-04-25T06:06:34.978Z,8.18
2023-04-25T06:09:02.867Z,3.60
2023-04-25T06:11:31.001Z,2.00
2023-04-25T06:13:58.888Z,2.38
2023-04-25T06:16:27.206Z,2.20
2023-04-25T06:18:55.458Z,2.90
2023-04-25T06:21:23.135Z,3.42
2023-04-25T06:23:51.031Z,4.15
2023-04-25T06:26:19.571Z,2.85
2023-04-25T06:28:47.514Z,5.38
2023-04-25T06:31:15.327Z,4.68
2023-04-25T06:33:43.280Z,4.32
2023-04-25T06:36:11.404Z,4.80
2023-04-25T06:38:39.235Z,5.32
2023-04-25T06:41:07.028Z,4.95
2023-04-25T06:43:34.757Z,4.75
2023-04-25T06:46:08.705Z,4.72
2023-04-25T06:48:36.560Z,4.93
2023-04-25T06:51:04.499Z,4.65
2023-04-25T06:53:32.178Z,5.22
2023-04-25T06:56:02.392Z,5.07
2023-04-25T06:58:30.418Z,4.05
2023-04-25T07:00:59.640Z,5.53
2023-04-25T07:03:27.540Z,4.45
2023-04-25T07:05:55.454Z,5.57
2023-04-25T07:08:23.315Z,4.15
2023-04-25T07:10:54.274Z,3.20
2023-04-25T07:13:22.278Z,4.22
2023-04-25T07:15:49.982Z,3.90
2023-04-25T07:18:17.811Z,1.80
2023-04-25T07:20:45.772Z,3.67
2023-04-25T07:23:13.756Z,6.57
2023-04-25T07:25:41.514Z,3.20
2023-04-25T07:28:09.234Z,3.95
2023-04-25T07:30:37.908Z,4.50
2023-04-25T07:33:08.633Z,6.05
2023-04-25T07:35:36.533Z,3.70
2023-04-25T07:38:07.809Z,2.75
2023-04-25T07:40:38.149Z,3.22
2023-04-25T07:43:05.973Z,3.33
2023-04-25T07:45:33.887Z,3.17
2023-04-25T07:48:01.689Z,3.05
2023-04-25T07:50:29.986Z,5.93
2023-04-25T07:52:57.741Z,3.10
2023-04-25T07:55:25.557Z,4.03
2023-04-25T07:57:53.328Z,3.80
2023-04-25T08:00:22.183Z,4.30
2023-04-25T08:02:52.558Z,3.30
2023-04-25T08:05:22.742Z,4.10
2023-04-25T08:07:51.218Z,4.05
2023-04-25T08:10:19.171Z,3.80
2023-04-25T08:12:46.929Z,4.82
2023-04-25T08:15:14.907Z,4.95
2023-04-25T08:17:42.578Z,5.60
2023-04-25T08:20:10.686Z,5.22
2023-04-25T08:22:41.058Z,6.63
2023-04-25T08:25:08.970Z,5.22
2023-04-25T08:27:37.241Z,6.68
2023-04-25T08:30:06.646Z,8.10
2023-04-25T08:32:39.193Z,4.28
2023-04-25T08:35:07.228Z,6.95
2023-04-25T08:37:35.055Z,7.95
2023-04-25T08:40:03.910Z,7.38
2023-04-25T08:42:40.762Z,4.68
2023-04-25T08:45:10.708Z,3.85
2023-04-25T08:47:39.567Z,4.57
2023-04-25T08:50:08.233Z,4.32
2023-04-25T08:52:42.039Z,6.55
2023-04-25T08:55:11.935Z,3.15
2023-04-25T09:02:37.817Z,6.05
2023-04-25T09:05:11.001Z,8.40
2023-04-25T09:07:40.123Z,5.35
2023-04-25T09:10:08.117Z,3.53
2023-04-25T09:12:37.264Z,6.88
2023-04-25T09:15:06.490Z,4.32
2023-04-25T09:17:34.502Z,4.68
2023-04-25T09:20:15.680Z,4.43
2023-04-25T09:22:44.080Z,3.95
2023-04-25T09:25:12.745Z,5.88
2023-04-25T09:27:52.185Z,4.38
2023-04-25T09:30:22.914Z,5.28
2023-04-25T09:32:51.011Z,3.88
2023-04-25T09:35:28.139Z,4.05
2023-04-25T09:37:56.113Z,3.72
2023-04-25T09:40:23.978Z,3.92
2023-04-25T09:42:52.823Z,5.32
2023-04-25T09:45:20.572Z,4.22
2023-04-25T09:47:50.948Z,6.57
2023-04-25T09:50:20.542Z,4.70
2023-04-25T09:52:50.268Z,3.70
2023-04-25T09:55:18.233Z,6.10
2023-04-25T09:57:49.483Z,2.63
2023-04-25T10:00:18.333Z,3.92
2023-04-25T10:02:48.219Z,7.40
2023-04-25T10:05:16.813Z,6.30
2023-04-25T10:07:44.609Z,4.80
2023-04-25T10:10:14.834Z,6.82
2023-04-25T10:12:44.579Z,4.32
2023-04-25T10:15:12.965Z,5.65
2023-04-25T10:17:41.122Z,3.47
2023-04-25T10:20:12.278Z,3.47
2023-04-25T10:22:42.107Z,6.28
2023-04-25T10:25:10.245Z,4.43
2023-04-25T10:27:38.321Z,4.07
2023-04-25T10:30:25.183Z,7.25
2023-04-25T10:32:53.035Z,3.40
2023-04-25T10:35:21.941Z,4.47
2023-04-25T10:38:05.062Z,5.43
2023-04-25T10:40:33.253Z,5.53
2023-04-25T10:43:36.601Z,5.35
2023-04-25T10:46:06.789Z,4.18
2023-04-25T10:48:34.614Z,5.40
2023-04-25T10:51:12.545Z,5.32
2023-04-25T10:53:40.354Z,7.22
2023-04-25T10:56:12.533Z,6.47
2023-04-25T10:58:45.798Z,5.10
2023-04-25T11:01:24.299Z,4.32
2023-04-25T11:03:59.469Z,10.63
2023-04-25T11:06:30.688Z,14.10
2023-04-25T11:08:58.467Z,16.15
2023-04-25T11:11:29.112Z,11.50
2023-04-25T11:13:56.904Z,11.20
2023-04-25T11:16:29.499Z,11.30
2023-04-25T11:18:59.563Z,12.80
2023-04-25T11:21:29.053Z,12.27
2023-04-25T11:23:58.544Z,11.13
2023-04-25T11:26:27.162Z,10.32
2023-04-25T11:28:59.669Z,11.73
2023-04-25T11:31:27.675Z,13.30
2023-04-25T11:33:56.454Z,12.35
2023-04-25T11:36:25.180Z,12.13
2023-04-25T11:38:53.182Z,12.23
2023-04-25T11:41:21.442Z,11.07
2023-04-25T11:43:49.905Z,11.05
2023-04-25T11:46:18.139Z,7.40
2023-04-25T11:48:46.575Z,11.90
2023-04-25T11:51:14.512Z,11.27
2023-04-25T11:53:46.832Z,9.88
2023-04-25T11:56:14.705Z,8.40
2023-04-25T11:59:03.942Z,10.95
2023-04-25T12:01:38.265Z,10.50
2023-04-25T12:04:16.052Z,10.20
2023-04-25T12:06:44.918Z,11.40
2023-04-25T12:09:17.324Z,10.88
2023-04-25T12:11:45.964Z,14.80
2023-04-25T12:14:14.266Z,8.38
2023-04-25T12:16:42.916Z,11.90
2023-04-25T12:19:13.168Z,12.27
2023-04-25T12:21:50.451Z,10.65
2023-04-25T12:24:26.941Z,4.75
2023-04-25T12:27:05.217Z,4.45
2023-04-25T12:29:42.498Z,4.10
2023-04-25T12:32:16.714Z,4.43
2023-04-25T12:34:44.582Z,3.90
2023-04-25T12:37:13.009Z,5.07
2023-04-25T12:39:40.876Z,4.25
2023-04-25T12:42:14.840Z,3.47
2023-04-25T12:44:42.709Z,2.95
2023-04-25T12:47:13.862Z,3.85
2023-04-25T12:49:41.798Z,3.75
2023-04-25T12:52:09.547Z,3.55
2023-04-25T12:54:37.461Z,4.75
2023-04-25T12:57:05.291Z,2.63
2023-04-25T12:59:33.066Z,3.28
2023-04-25T13:02:01.938Z,2.72
2023-04-25T13:04:30.400Z,4.40
2023-04-25T13:06:58.414Z,3.63
2023-04-25T13:09:26.424Z,2.78
2023-04-25T13:11:56.263Z,3.22
2023-04-25T13:14:26.304Z,2.28
2023-04-25T13:16:55.386Z,5.15
2023-04-25T13:19:23.518Z,4.60
2023-04-25T13:21:51.391Z,3.20
2023-04-25T13:24:19.335Z,4.68
2023-04-25T13:26:47.244Z,3.17
2023-04-25T13:29:15.063Z,3.35
2023-04-25T13:31:42.951Z,3.13
2023-04-25T13:34:11.401Z,2.17
2023-04-25T13:36:39.370Z,2.78
2023-04-25T13:39:07.249Z,3.00
2023-04-25T13:41:35.125Z,2.83
2023-04-25T13:44:05.981Z,3.88
2023-04-25T13:46:46.629Z,4.60
2023-04-25T13:49:15.474Z,3.72
2023-04-25T13:51:43.714Z,4.78
2023-04-25T13:54:14.192Z,2.85
2023-04-25T13:56:43.571Z,3.38
2023-04-25T13:59:11.556Z,3.80
2023-04-25T14:01:40.690Z,4.47
2023-04-25T14:04:08.753Z,3.10
2023-04-25T14:06:37.222Z,2.60
2023-04-25T14:09:05.587Z,5.82
2023-04-25T14:11:33.380Z,2.72
2023-04-25T14:14:01.241Z,5.90
2023-04-25T14:16:29.374Z,2.22
2023-04-25T14:18:57.312Z,2.70
2023-04-25T14:21:25.119Z,0.70
2023-04-25T14:23:53.626Z,1.45
2023-04-25T14:26:21.817Z,1.40
2023-04-25T14:28:49.520Z,2.38
2023-04-25T14:31:17.322Z,4.05
2023-04-25T14:33:45.180Z,1.65
2023-04-25T14:36:12.933Z,2.20
2023-04-25T14:38:40.653Z,1.85
2023-04-25T14:41:08.471Z,0.80
2023-04-25T14:43:37.701Z,2.20
2023-04-25T14:46:05.398Z,1.33
2023-04-25T14:48:33.101Z,3.53
2023-04-25T14:51:01.801Z,2.60
2023-04-25T14:53:29.908Z,14.55
2023-04-25T14:55:57.860Z,2.03
2023-04-25T14:58:25.495Z,3.75
2023-04-25T15:00:54.729Z,2.30
2023-04-25T15:03:22.473Z,5.30
2023-04-25T15:05:50.178Z,2.45
2023-04-25T15:08:17.957Z,2.05
2023-04-25T15:10:46.461Z,1.98
2023-04-25T15:13:14.090Z,3.22
2023-04-25T15:15:41.941Z,2.10
2023-04-25T15:18:11.300Z,2.88
2023-04-25T15:20:39.392Z,1.40
2023-04-25T15:23:07.228Z,1.75
2023-04-25T15:25:35.337Z,2.38
2023-04-25T15:28:04.073Z,2.15
2023-04-25T15:30:32.340Z,1.00
2023-04-25T15:33:00.198Z,1.98
2023-04-25T15:35:28.234Z,1.00
2023-04-25T15:37:56.213Z,1.85
2023-04-25T15:40:24.034Z,3.80
2023-04-25T15:42:52.242Z,2.78
2023-04-25T15:45:25.972Z,4.65
2023-04-25T15:47:55.275Z,2.72
2023-04-25T15:50:23.282Z,3.22
2023-04-25T15:52:51.555Z,1.92
2023-04-25T15:55:21.206Z,1.98
2023-04-25T15:57:51.244Z,1.73
2023-04-25T16:00:22.311Z,2.63
2023-04-25T16:02:50.367Z,2.25
2023-04-25T16:05:18.487Z,1.90
2023-04-25T16:07:46.975Z,2.05
2023-04-25T16:10:17.216Z,1.98
2023-04-25T16:12:44.991Z,6.68
2023-04-25T16:15:15.251Z,1.75
2023-04-25T16:17:43.027Z,1.55
2023-04-25T16:20:12.614Z,0.93
2023-04-25T16:22:41.176Z,1.73
2023-04-25T16:25:09.260Z,1.88
2023-04-25T16:27:39.844Z,1.80
2023-04-25T16:30:10.670Z,1.20
2023-04-25T16:32:40.010Z,1.55
2023-04-25T16:35:08.134Z,1.48
2023-04-25T16:37:35.864Z,1.15
2023-04-25T16:40:03.361Z,1.05
2023-04-25T16:42:32.547Z,1.48
2023-04-25T16:45:00.587Z,1.17
2023-04-25T16:47:28.379Z,1.50
2023-04-25T16:49:56.502Z,1.40
2023-04-25T16:52:24.281Z,7.03
2023-04-25T16:54:52.053Z,0.60
2023-04-25T16:57:19.742Z,1.70
2023-04-25T16:59:47.532Z,1.23
2023-04-25T17:02:17.172Z,1.40
2023-04-25T17:04:45.011Z,1.00
2023-04-25T17:07:12.946Z,1.38
2023-04-25T17:09:41.092Z,1.67
2023-04-25T17:12:08.747Z,2.15
2023-04-25T17:14:37.549Z,1.10
2023-04-25T17:17:05.535Z,0.93
2023-04-25T17:19:33.210Z,0.88
2023-04-25T17:22:01.033Z,0.95
2023-04-25T17:24:28.692Z,1.30
2023-04-25T17:26:57.266Z,1.95
2023-04-25T17:29:25.203Z,1.92
2023-04-25T17:31:53.762Z,2.10
2023-04-25T17:34:22.201Z,2.20
2023-04-25T17:36:50.267Z,2.42
2023-04-25T17:39:17.971Z,2.90
2023-04-25T17:41:46.267Z,2.85
2023-04-25T17:44:14.926Z,3.05
2023-04-25T17:46:42.686Z,3.75
2023-04-25T17:49:10.507Z,4.55
2023-04-25T17:51:38.234Z,5.90
2023-04-25T17:54:05.995Z,6.05
2023-04-25T17:56:37.400Z,5.35
2023-04-25T17:59:05.293Z,4.63
2023-04-25T18:01:34.321Z,5.95
2023-04-25T18:04:04.646Z,5.10
2023-04-25T18:06:35.453Z,4.82
2023-04-25T18:09:03.680Z,4.53
2023-04-25T18:11:31.978Z,5.03
2023-04-25T18:13:59.707Z,3.40
2023-04-25T18:16:29.463Z,3.58
2023-04-25T18:21:33.118Z,3.72
2023-04-25T18:24:01.327Z,4.35
2023-04-25T18:26:30.893Z,3.30
2023-04-25T18:28:59.292Z,2.80
2023-04-25T18:31:26.993Z,3.30
2023-04-25T18:33:54.934Z,3.08
2023-04-25T18:36:22.701Z,2.65
2023-04-25T18:38:56.201Z,3.67
2023-04-25T18:44:03.706Z,2.60
2023-04-25T18:46:33.410Z,3.40
2023-04-25T18:49:01.342Z,3.80
2023-04-25T18:51:31.519Z,3.53
2023-04-25T18:53:59.625Z,2.50
2023-04-25T18:56:27.761Z,3.13
2023-04-25T18:58:56.147Z,3.45
2023-04-25T19:01:24.690Z,2.95
2023-04-25T19:03:57.160Z,3.28
2023-04-25T19:06:27.452Z,2.40
2023-04-25T19:08:55.670Z,2.70
2023-04-25T19:11:23.556Z,3.38
2023-04-25T19:13:51.800Z,2.70
2023-04-25T19:16:19.860Z,2.78
2023-04-25T19:18:47.595Z,2.53
2023-04-25T19:21:15.512Z,2.47
2023-04-25T19:23:43.269Z,3.45
2023-04-25T19:26:10.952Z,2.42
2023-04-25T19:28:39.259Z,2.20
2023-04-25T19:31:07.340Z,2.13
2023-04-25T19:33:35.235Z,2.20
2023-04-25T19:36:03.301Z,2.35
2023-04-25T19:38:31.157Z,1.92
2023-04-25T19:40:58.917Z,2.60
2023-04-25T19:43:27.087Z,2.70
2023-04-25T19:45:55.177Z,3.05
2023-04-25T19:48:23.002Z,2.53
2023-04-25T19:50:51.206Z,2.70
2023-04-25T19:53:18.974Z,2.22
2023-04-25T19:55:46.941Z,2.88
2023-04-25T19:58:14.608Z,2.20
2023-04-25T20:00:42.882Z,2.72
2023-04-25T20:03:12.329Z,2.80
2023-04-25T20:05:40.166Z,2.63
2023-04-25T20:08:07.945Z,3.95
2023-04-25T20:10:35.581Z,3.33
2023-04-25T20:13:03.452Z,8.27
2023-04-25T20:15:31.939Z,8.25
2023-04-25T20:17:59.841Z,6.13
2023-04-25T20:20:27.620Z,3.47
2023-04-25T20:22:55.676Z,3.80
2023-04-25T20:25:24.024Z,2.85
2023-04-25T20:27:51.760Z,3.28
2023-04-25T20:30:19.783Z,2.88
2023-04-25T20:32:47.652Z,3.65
2023-04-25T20:35:15.545Z,3.97
2023-04-25T20:37:43.487Z,3.15
2023-04-25T20:40:11.265Z,3.22
2023-04-25T20:42:39.081Z,3.90
2023-04-25T20:45:13.509Z,2.88
2023-04-25T20:47:41.593Z,3.00
2023-04-25T20:50:09.596Z,4.40
2023-04-25T20:52:38.724Z,3.13
2023-04-25T20:55:07.385Z,3.05
2023-04-25T20:57:35.125Z,3.83
2023-04-25T21:00:05.459Z,2.80
2023-04-25T21:02:33.634Z,2.55
2023-04-25T21:05:02.005Z,3.15
2023-04-25T21:07:29.958Z,2.72
2023-04-25T21:09:58.097Z,2.60
2023-04-25T21:12:25.824Z,2.95
2023-04-25T21:14:53.502Z,2.75
2023-04-25T21:17:21.404Z,3.20
2023-04-25T21:19:49.519Z,3.13
2023-04-25T21:22:17.273Z,3.45
2023-04-25T21:24:45.350Z,4.00
2023-04-25T21:27:13.175Z,3.08
2023-04-25T21:29:40.832Z,2.80
2023-04-25T21:32:09.002Z,2.78
2023-04-25T21:34:36.781Z,2.88
2023-04-25T21:37:06.964Z,3.40
2023-04-25T21:39:34.885Z,3.00
2023-04-25T21:42:03.397Z,3.22
2023-04-25T21:44:31.252Z,4.00
2023-04-25T21:46:59.079Z,3.53
2023-04-25T21:49:29.676Z,3.83
2023-04-25T21:51:57.926Z,3.20
2023-04-25T21:54:25.785Z,3.75
2023-04-25T21:56:53.471Z,3.80
2023-04-25T21:59:21.292Z,3.03
2023-04-25T22:01:49.587Z,4.00
2023-04-25T22:04:18.355Z,3.88
2023-04-25T22:06:46.606Z,3.47
2023-04-25T22:09:15.458Z,3.70
2023-04-25T22:11:45.545Z,3.72
2023-04-25T22:14:13.531Z,4.38
2023-04-25T22:16:41.733Z,3.75
2023-04-25T22:19:09.657Z,3.60
2023-04-25T22:21:37.405Z,3.63
2023-04-25T22:24:06.373Z,4.25
2023-04-25T22:26:34.551Z,3.50
2023-04-25T22:29:02.738Z,5.15
2023-04-25T22:31:30.581Z,4.20
2023-04-25T22:33:58.505Z,4.43
2023-04-25T22:36:27.670Z,4.18
2023-04-25T22:38:55.442Z,4.35
2023-04-25T22:41:23.883Z,4.80
2023-04-25T22:43:54.079Z,3.88
2023-04-25T22:46:22.291Z,3.72
2023-04-25T22:48:50.275Z,3.58
2023-04-25T22:51:19.516Z,3.88
2023-04-25T22:53:47.261Z,4.18
2023-04-25T22:56:15.485Z,3.53
2023-04-25T22:58:44.106Z,3.50
2023-04-25T23:01:12.469Z,3.58
2023-04-25T23:03:40.890Z,3.33
2023-04-25T23:06:08.738Z,4.18
2023-04-25T23:08:36.626Z,3.10
2023-04-25T23:11:10.456Z,3.53
2023-04-25T23:13:38.297Z,2.70
2023-04-25T23:16:06.581Z,4.05
2023-04-25T23:18:34.158Z,4.53
2023-04-25T23:21:02.284Z,5.00
2023-04-25T23:23:30.036Z,5.88
2023-04-25T23:25:57.943Z,6.18
2023-04-25T23:28:25.908Z,6.22
2023-04-25T23:30:53.777Z,8.50
2023-04-25T23:33:21.598Z,6.18
2023-04-25T23:35:49.433Z,6.05
2023-04-25T23:38:17.370Z,6.60
2023-04-25T23:40:45.154Z,6.38
2023-04-25T23:43:12.944Z,4.65
2023-04-25T23:45:44.000Z,6.30
2023-04-25T23:48:11.800Z,5.70
2023-04-25T23:50:39.674Z,4.78
2023-04-25T23:53:07.592Z,5.13
2023-04-25T23:55:35.311Z,6.03
2023-04-25T23:58:03.759Z,5.13
